createdAt,value
2019-05-21T00:01:35.910Z,96.30
2019-05-21T00:04:10.697Z,96.40
2019-05-21T00:06:45.380Z,96.30
2019-05-21T00:09:20.103Z,96.30
2019-05-21T00:11:54.787Z,96.10
2019-05-21T00:14:29.512Z,96.10
2019-05-21T00:17:04.263Z,96.20
2019-05-21T00:19:39.048Z,96.20
2019-05-21T00:22:13.667Z,96.10
2019-05-21T00:24:48.622Z,96.00
2019-05-21T00:27:23.367Z,95.80
2019-05-21T00:30:34.122Z,95.80
2019-05-21T00:33:44.990Z,96.00
2019-05-21T00:36:58.129Z,95.70
2019-05-21T00:40:09.356Z,95.70
2019-05-21T00:42:45.755Z,95.80
2019-05-21T00:45:22.126Z,95.80
2019-05-21T00:47:56.781Z,95.80
2019-05-21T00:50:31.471Z,95.80
2019-05-21T00:53:06.259Z,95.90
2019-05-21T00:55:40.946Z,96.00
2019-05-21T00:58:15.664Z,96.10
2019-05-21T01:00:50.278Z,96.20
2019-05-21T01:03:25.010Z,96.40
2019-05-21T01:05:59.696Z,96.30
2019-05-21T01:08:34.406Z,95.90
2019-05-21T01:11:09.101Z,95.80
2019-05-21T01:13:43.821Z,95.80
2019-05-21T01:16:18.586Z,95.60
2019-05-21T01:18:53.376Z,95.70
2019-05-21T01:21:28.129Z,95.80
2019-05-21T01:24:02.846Z,95.70
2019-05-21T01:26:37.538Z,96.00
2019-05-21T01:29:12.277Z,95.50
2019-05-21T01:31:47.019Z,95.30
2019-05-21T01:34:21.737Z,95.00
2019-05-21T01:36:56.426Z,94.70
2019-05-21T01:39:31.153Z,94.60
2019-05-21T01:42:05.911Z,94.50
2019-05-21T01:44:40.697Z,94.50
2019-05-21T01:47:15.452Z,94.00
2019-05-21T01:49:50.304Z,94.50
2019-05-21T01:52:24.983Z,94.10
2019-05-21T01:54:59.779Z,94.00
2019-05-21T01:57:34.543Z,93.90
2019-05-21T02:00:09.502Z,94.20
2019-05-21T02:02:44.111Z,94.00
2019-05-21T02:05:32.049Z,93.80
2019-05-21T02:07:55.275Z,93.80
2019-05-21T02:10:30.071Z,94.00
2019-05-21T02:13:04.857Z,94.20
2019-05-21T02:15:39.585Z,94.50
2019-05-21T02:18:14.194Z,94.80
2019-05-21T02:20:48.908Z,95.20
2019-05-21T02:23:23.595Z,95.40
2019-05-21T02:25:58.238Z,95.60
2019-05-21T02:28:32.927Z,96.00
2019-05-21T02:31:07.710Z,95.90
2019-05-21T02:33:42.477Z,95.10
2019-05-21T02:36:17.193Z,94.90
2019-05-21T02:38:51.953Z,94.50
2019-05-21T02:41:26.611Z,95.00
2019-05-21T02:44:01.301Z,95.00
2019-05-21T02:46:36.089Z,95.10
2019-05-21T02:49:10.761Z,94.90
2019-05-21T02:51:45.983Z,94.90
2019-05-21T02:54:38.820Z,94.90
2019-05-21T02:56:57.075Z,94.90
2019-05-21T02:59:31.756Z,94.10
2019-05-21T03:02:10.914Z,93.60
2019-05-21T03:04:47.239Z,93.40
2019-05-21T03:07:25.247Z,92.80
2019-05-21T03:09:58.417Z,92.60
2019-05-21T03:12:33.199Z,92.60
2019-05-21T03:15:08.551Z,93.20
2019-05-21T03:17:43.343Z,93.60
2019-05-21T03:20:18.221Z,94.10
2019-05-21T03:22:52.855Z,94.50
2019-05-21T03:25:27.538Z,94.90
2019-05-21T03:28:02.331Z,95.00
2019-05-21T03:30:37.079Z,95.30
2019-05-21T03:33:11.877Z,94.90
2019-05-21T03:35:46.583Z,93.90
2019-05-21T03:38:21.292Z,92.90
2019-05-21T03:40:55.982Z,92.40
2019-05-21T03:43:30.699Z,92.00
2019-05-21T03:46:05.463Z,92.30
2019-05-21T03:48:40.261Z,92.70
2019-05-21T03:51:15.003Z,93.00
2019-05-21T03:53:49.722Z,92.80
2019-05-21T03:56:26.184Z,92.10
2019-05-21T03:59:00.969Z,90.90
2019-05-21T04:01:35.644Z,88.50
2019-05-21T04:04:10.400Z,84.00
2019-05-21T04:06:52.154Z,82.10
2019-05-21T04:09:21.428Z,79.60
2019-05-21T04:11:56.174Z,76.40
2019-05-21T04:14:32.537Z,75.40
2019-05-21T04:17:11.806Z,75.00
2019-05-21T04:19:48.083Z,73.30
2019-05-21T04:22:22.790Z,71.70
2019-05-21T04:24:57.556Z,73.20
2019-05-21T04:27:32.171Z,72.20
2019-05-21T04:30:11.167Z,69.50
2019-05-21T04:32:44.696Z,67.70
2019-05-21T04:35:19.416Z,65.90
2019-05-21T04:37:54.017Z,71.00
2019-05-21T04:40:28.671Z,67.00
2019-05-21T04:43:03.372Z,71.00
2019-05-21T04:45:38.096Z,75.50
2019-05-21T04:48:12.771Z,75.30
2019-05-21T04:50:47.487Z,73.40
2019-05-21T04:53:22.414Z,73.20
2019-05-21T04:55:57.066Z,74.30
2019-05-21T04:58:31.765Z,72.00
2019-05-21T05:01:08.017Z,76.00
2019-05-21T05:03:42.699Z,76.30
2019-05-21T05:06:17.547Z,73.40
2019-05-21T05:08:52.302Z,70.50
2019-05-21T05:11:27.022Z,66.50
2019-05-21T05:14:01.889Z,66.70
2019-05-21T05:16:38.140Z,64.10
2019-05-21T05:19:12.893Z,62.40
2019-05-21T05:21:47.606Z,61.80
2019-05-21T05:24:22.351Z,62.60
2019-05-21T05:26:57.089Z,61.90
2019-05-21T05:29:31.830Z,61.60
2019-05-21T05:32:06.590Z,63.30
2019-05-21T05:34:41.174Z,59.80
2019-05-21T05:37:16.018Z,60.90
2019-05-21T05:39:50.785Z,62.90
2019-05-21T05:42:25.558Z,63.10
2019-05-21T05:45:00.249Z,62.00
2019-05-21T05:47:34.969Z,62.00
2019-05-21T05:50:11.572Z,57.40
2019-05-21T05:52:46.359Z,57.40
2019-05-21T05:55:21.042Z,58.40
2019-05-21T05:57:55.763Z,57.60
2019-05-21T06:00:30.587Z,59.40
2019-05-21T06:03:05.303Z,57.90
2019-05-21T06:05:40.072Z,60.10
2019-05-21T06:08:14.859Z,57.20
2019-05-21T06:10:49.542Z,56.70
2019-05-21T06:13:24.263Z,59.50
2019-05-21T06:15:58.949Z,58.20
2019-05-21T06:18:35.663Z,58.50
2019-05-21T06:21:10.114Z,55.90
2019-05-21T06:23:44.856Z,56.00
2019-05-21T06:26:19.605Z,55.70
2019-05-21T06:28:54.458Z,55.80
2019-05-21T06:31:29.220Z,56.60
2019-05-21T06:34:04.224Z,57.70
2019-05-21T06:36:38.902Z,56.60
2019-05-21T06:39:13.683Z,57.30
2019-05-21T06:41:48.371Z,56.60
2019-05-21T06:44:23.104Z,55.60
2019-05-21T06:46:57.788Z,56.10
2019-05-21T06:49:32.513Z,54.60
2019-05-21T06:52:07.262Z,56.60
2019-05-21T06:54:41.991Z,56.60
2019-05-21T06:57:16.743Z,56.70
2019-05-21T06:59:51.538Z,57.60
2019-05-21T07:02:26.286Z,56.00
2019-05-21T07:05:00.944Z,55.00
2019-05-21T07:07:35.760Z,55.30
2019-05-21T07:10:10.877Z,56.00
2019-05-21T07:12:45.635Z,56.60
2019-05-21T07:15:20.437Z,57.80
2019-05-21T07:17:55.116Z,57.10
2019-05-21T07:20:29.926Z,55.60
2019-05-21T07:23:04.798Z,56.80
2019-05-21T07:25:39.591Z,56.50
2019-05-21T07:28:14.349Z,55.70
2019-05-21T07:30:49.439Z,56.90
2019-05-21T07:33:24.045Z,57.20
2019-05-21T07:35:58.706Z,55.30
2019-05-21T07:38:33.409Z,57.30
2019-05-21T07:41:08.227Z,55.70
2019-05-21T07:43:42.988Z,56.20
2019-05-21T07:46:17.773Z,56.70
2019-05-21T07:48:52.739Z,57.40
2019-05-21T07:51:27.513Z,55.10
2019-05-21T07:54:02.160Z,53.20
2019-05-21T07:56:36.964Z,54.60
2019-05-21T07:59:11.622Z,54.10
2019-05-21T08:01:46.396Z,56.10
2019-05-21T08:04:21.011Z,53.50
2019-05-21T08:06:55.789Z,53.50
2019-05-21T08:09:30.571Z,52.70
2019-05-21T08:12:22.847Z,53.30
2019-05-21T08:14:41.600Z,52.00
2019-05-21T08:17:16.299Z,54.20
2019-05-21T08:19:50.943Z,55.40
2019-05-21T08:22:25.596Z,55.70
2019-05-21T08:25:00.216Z,54.50
2019-05-21T08:27:35.015Z,53.30
2019-05-21T08:30:10.171Z,53.20
2019-05-21T08:32:44.946Z,53.50
2019-05-21T08:35:19.627Z,54.10
2019-05-21T08:37:54.357Z,55.70
2019-05-21T08:40:29.181Z,53.80
2019-05-21T08:43:03.915Z,53.70
2019-05-21T08:45:38.590Z,53.30
2019-05-21T08:48:13.437Z,54.70
2019-05-21T08:50:48.106Z,54.70
2019-05-21T08:53:22.777Z,53.50
2019-05-21T08:55:57.432Z,53.00
2019-05-21T08:58:32.176Z,55.10
2019-05-21T09:01:06.937Z,52.10
2019-05-21T09:03:41.650Z,52.10
2019-05-21T09:06:16.507Z,52.10
2019-05-21T09:08:51.230Z,54.10
2019-05-21T09:11:25.911Z,52.80
2019-05-21T09:14:00.627Z,53.10
2019-05-21T09:16:35.474Z,52.60
2019-05-21T09:19:10.195Z,54.00
2019-05-21T09:21:44.808Z,53.30
2019-05-21T09:24:19.595Z,55.00
2019-05-21T09:26:54.342Z,55.20
2019-05-21T09:29:29.057Z,54.10
2019-05-21T09:32:03.837Z,53.80
2019-05-21T09:34:48.248Z,52.80
2019-05-21T09:37:19.742Z,52.70
2019-05-21T09:39:51.420Z,54.00
2019-05-21T09:42:26.162Z,53.00
2019-05-21T09:45:00.962Z,55.40
2019-05-21T09:47:35.734Z,52.80
2019-05-21T09:50:11.103Z,52.70
2019-05-21T09:52:45.789Z,53.50
2019-05-21T09:55:20.576Z,52.70
2019-05-21T09:58:06.235Z,51.30
2019-05-21T10:00:45.576Z,52.40
2019-05-21T10:03:21.903Z,51.00
2019-05-21T10:05:56.696Z,50.60
2019-05-21T10:08:31.379Z,52.50
2019-05-21T10:11:06.250Z,52.30
2019-05-21T10:13:41.008Z,53.80
2019-05-21T10:16:15.795Z,53.80
2019-05-21T10:18:50.574Z,53.60
2019-05-21T10:21:25.425Z,52.70
2019-05-21T10:24:00.227Z,52.90
2019-05-21T10:26:35.582Z,54.50
2019-05-21T10:29:10.935Z,53.40
2019-05-21T10:31:45.590Z,53.90
2019-05-21T10:34:20.349Z,53.20
2019-05-21T10:36:55.254Z,54.40
2019-05-21T10:39:29.950Z,55.10
2019-05-21T10:42:04.781Z,56.20
2019-05-21T10:44:39.399Z,55.10
2019-05-21T10:47:16.358Z,55.10
2019-05-21T10:49:50.427Z,55.70
2019-05-21T10:52:25.590Z,58.00
2019-05-21T10:55:00.275Z,57.40
2019-05-21T10:57:34.998Z,56.40
2019-05-21T11:00:13.487Z,57.60
2019-05-21T11:03:04.959Z,56.90
2019-05-21T11:05:41.371Z,57.30
2019-05-21T11:08:25.028Z,56.60
2019-05-21T11:10:52.804Z,57.00
2019-05-21T11:13:27.617Z,57.90
2019-05-21T11:16:02.369Z,56.70
2019-05-21T11:18:37.010Z,56.20
2019-05-21T11:21:11.779Z,56.70
2019-05-21T11:23:46.557Z,56.50
2019-05-21T11:26:21.212Z,57.10
2019-05-21T11:28:56.010Z,55.50
2019-05-21T11:31:30.820Z,55.00
2019-05-21T11:34:05.609Z,55.00
2019-05-21T11:36:40.310Z,55.30
2019-05-21T11:39:15.101Z,57.40
2019-05-21T11:41:51.612Z,57.40
2019-05-21T11:44:26.288Z,57.40
2019-05-21T11:47:00.969Z,56.80
2019-05-21T11:49:35.837Z,57.90
2019-05-21T11:52:10.572Z,57.90
2019-05-21T11:54:45.287Z,58.20
2019-05-21T11:57:20.049Z,57.20
2019-05-21T11:59:54.824Z,57.10
2019-05-21T12:02:29.523Z,58.90
2019-05-21T12:05:06.214Z,58.00
2019-05-21T12:07:40.968Z,59.30
2019-05-21T12:10:15.860Z,58.20
2019-05-21T12:12:50.550Z,60.40
2019-05-21T12:15:25.273Z,61.90
2019-05-21T12:18:00.033Z,60.00
2019-05-21T12:20:37.160Z,59.90
2019-05-21T12:23:11.141Z,61.40
2019-05-21T12:25:46.001Z,57.40
2019-05-21T12:28:20.819Z,58.20
2019-05-21T12:30:55.677Z,57.60
2019-05-21T12:33:30.534Z,57.30
2019-05-21T12:36:06.551Z,56.90
2019-05-21T12:38:41.236Z,56.70
2019-05-21T12:41:16.030Z,57.80
2019-05-21T12:43:50.795Z,58.90
2019-05-21T12:46:25.510Z,53.80
2019-05-21T12:49:00.128Z,52.30
2019-05-21T12:51:34.929Z,52.70
2019-05-21T12:54:10.739Z,53.00
2019-05-21T12:56:45.541Z,53.30
2019-05-21T12:59:20.225Z,53.20
2019-05-21T13:01:54.942Z,53.80
2019-05-21T13:04:29.700Z,52.40
2019-05-21T13:07:04.657Z,50.30
2019-05-21T13:09:39.339Z,50.60
2019-05-21T13:12:14.139Z,50.40
2019-05-21T13:14:48.815Z,50.20
2019-05-21T13:17:23.535Z,50.20
2019-05-21T13:19:58.292Z,50.30
2019-05-21T13:22:33.096Z,50.40
2019-05-21T13:25:08.661Z,50.50
2019-05-21T13:27:43.373Z,50.50
2019-05-21T13:30:18.413Z,50.80
2019-05-21T13:32:53.131Z,49.80
2019-05-21T13:35:28.265Z,50.50
2019-05-21T13:38:02.984Z,49.80
2019-05-21T13:40:38.115Z,49.60
2019-05-21T13:43:12.862Z,49.60
2019-05-21T13:45:49.041Z,49.20
2019-05-21T13:48:26.805Z,49.80
2019-05-21T13:51:01.507Z,50.80
2019-05-21T13:53:36.303Z,49.20
2019-05-21T13:56:11.079Z,50.40
2019-05-21T13:58:45.856Z,49.60
2019-05-21T14:01:38.852Z,48.30
2019-05-21T14:03:56.974Z,49.70
2019-05-21T14:06:33.772Z,50.50
2019-05-21T14:09:10.805Z,50.00
2019-05-21T14:11:45.758Z,49.80
2019-05-21T14:14:20.471Z,49.70
2019-05-21T14:16:55.082Z,50.80
2019-05-21T14:19:29.882Z,51.90
2019-05-21T14:22:04.668Z,53.10
2019-05-21T14:24:39.461Z,53.00
2019-05-21T14:27:14.191Z,53.00
2019-05-21T14:29:48.851Z,53.20
2019-05-21T14:32:23.470Z,53.60
2019-05-21T14:35:01.266Z,54.10
2019-05-21T14:37:34.510Z,54.70
2019-05-21T14:40:10.586Z,54.70
2019-05-21T14:42:59.186Z,54.60
2019-05-21T14:45:22.179Z,56.10
2019-05-21T14:47:56.803Z,55.30
2019-05-21T14:50:31.508Z,55.70
2019-05-21T14:53:06.197Z,56.60
2019-05-21T14:55:47.691Z,57.80
2019-05-21T14:58:23.854Z,57.80
2019-05-21T15:00:58.648Z,57.30
2019-05-21T15:03:33.339Z,58.30
2019-05-21T15:06:08.198Z,58.80
2019-05-21T15:08:42.813Z,58.60
2019-05-21T15:11:17.531Z,59.80
2019-05-21T15:13:53.611Z,58.70
2019-05-21T15:16:28.371Z,58.60
2019-05-21T15:19:03.130Z,58.30
2019-05-21T15:21:41.146Z,57.50
2019-05-21T15:24:15.955Z,57.70
2019-05-21T15:26:50.746Z,57.70
2019-05-21T15:29:25.517Z,58.20
2019-05-21T15:32:00.154Z,59.70
2019-05-21T15:34:34.823Z,66.80
2019-05-21T15:37:09.628Z,71.70
2019-05-21T15:39:44.215Z,72.70
2019-05-21T15:42:18.959Z,74.60
2019-05-21T15:44:53.709Z,76.00
2019-05-21T15:47:28.493Z,77.10
2019-05-21T15:50:03.266Z,77.50
2019-05-21T15:52:38.039Z,77.20
2019-05-21T15:55:12.825Z,76.70
2019-05-21T15:57:47.513Z,77.40
2019-05-21T16:00:23.521Z,77.70
2019-05-21T16:02:59.289Z,78.40
2019-05-21T16:05:34.015Z,79.40
2019-05-21T16:08:08.779Z,82.50
2019-05-21T16:10:43.446Z,83.30
2019-05-21T16:13:18.199Z,83.90
2019-05-21T16:15:52.884Z,84.90
2019-05-21T16:18:27.678Z,85.30
2019-05-21T16:21:03.207Z,85.50
2019-05-21T16:23:40.414Z,86.30
2019-05-21T16:26:14.340Z,86.60
2019-05-21T16:28:49.021Z,86.10
2019-05-21T16:31:26.698Z,86.80
2019-05-21T16:34:01.428Z,85.90
2019-05-21T16:36:36.032Z,86.80
2019-05-21T16:39:10.766Z,85.70
2019-05-21T16:41:45.670Z,86.70
2019-05-21T16:44:20.856Z,85.20
2019-05-21T16:46:55.551Z,86.20
2019-05-21T16:49:30.344Z,86.60
2019-05-21T16:52:05.102Z,86.70
2019-05-21T16:54:41.364Z,86.50
2019-05-21T16:57:16.060Z,85.80
2019-05-21T16:59:50.828Z,86.40
2019-05-21T17:02:25.468Z,85.70
2019-05-21T17:05:00.279Z,85.40
2019-05-21T17:07:34.960Z,85.60
2019-05-21T17:10:10.456Z,85.30
2019-05-21T17:12:45.223Z,84.40
2019-05-21T17:15:19.992Z,83.60
2019-05-21T17:17:54.578Z,83.70
2019-05-21T17:20:33.752Z,83.60
2019-05-21T17:23:06.929Z,83.40
2019-05-21T17:25:41.713Z,82.90
2019-05-21T17:28:16.475Z,82.80
2019-05-21T17:30:54.270Z,83.80
2019-05-21T17:33:28.965Z,83.50
2019-05-21T17:36:04.095Z,82.80
2019-05-21T17:38:40.295Z,83.30
2019-05-21T17:41:15.103Z,83.40
2019-05-21T17:43:49.722Z,83.60
2019-05-21T17:46:24.658Z,83.30
2019-05-21T17:49:02.672Z,82.90
2019-05-21T17:51:37.469Z,83.10
2019-05-21T17:54:12.207Z,82.40
2019-05-21T17:56:46.938Z,82.90
2019-05-21T17:59:21.689Z,82.20
2019-05-21T18:01:56.891Z,83.10
2019-05-21T18:04:31.767Z,83.00
2019-05-21T18:07:08.218Z,83.40
2019-05-21T18:09:44.614Z,83.70
2019-05-21T18:12:31.509Z,83.10
2019-05-21T18:14:58.247Z,82.50
2019-05-21T18:17:34.048Z,82.50
2019-05-21T18:20:10.470Z,83.10
2019-05-21T18:22:45.849Z,83.10
2019-05-21T18:25:20.622Z,82.90
2019-05-21T18:27:55.342Z,82.50
2019-05-21T18:30:30.515Z,82.90
2019-05-21T18:33:05.766Z,82.70
2019-05-21T18:35:40.534Z,83.40
2019-05-21T18:38:16.943Z,82.70
2019-05-21T18:40:51.663Z,83.00
2019-05-21T18:43:26.378Z,83.00
2019-05-21T18:46:01.127Z,83.00
2019-05-21T18:48:35.938Z,82.80
2019-05-21T18:51:10.678Z,82.90
2019-05-21T18:53:45.496Z,82.00
2019-05-21T18:56:20.246Z,82.00
2019-05-21T18:58:55.023Z,82.10
2019-05-21T19:01:29.850Z,83.00
2019-05-21T19:04:04.642Z,82.80
2019-05-21T19:06:41.686Z,82.40
2019-05-21T19:09:17.877Z,83.20
2019-05-21T19:11:52.635Z,84.00
2019-05-21T19:14:27.345Z,84.50
2019-05-21T19:17:02.215Z,85.70
2019-05-21T19:19:36.991Z,85.40
2019-05-21T19:22:11.758Z,85.90
2019-05-21T19:24:46.474Z,86.60
2019-05-21T19:27:21.155Z,86.60
2019-05-21T19:29:55.937Z,87.00
2019-05-21T19:32:30.696Z,87.40
2019-05-21T19:35:06.887Z,88.20
2019-05-21T19:37:42.134Z,88.10
2019-05-21T19:40:17.126Z,89.00
2019-05-21T19:42:55.386Z,89.10
2019-05-21T19:45:31.319Z,89.20
2019-05-21T19:48:04.720Z,89.80
2019-05-21T19:50:39.582Z,90.20
2019-05-21T19:53:14.351Z,90.00
2019-05-21T19:55:49.354Z,89.90
2019-05-21T19:58:25.417Z,90.00
2019-05-21T20:01:00.220Z,89.70
2019-05-21T20:03:35.037Z,90.00
2019-05-21T20:06:10.294Z,90.30
2019-05-21T20:08:45.519Z,90.10
2019-05-21T20:11:20.517Z,90.10
2019-05-21T20:13:55.298Z,90.10
2019-05-21T20:16:30.395Z,90.00
2019-05-21T20:19:06.312Z,90.10
2019-05-21T20:21:41.559Z,89.80
2019-05-21T20:24:17.177Z,89.80
2019-05-21T20:26:53.537Z,89.80
2019-05-21T20:29:29.187Z,90.00
2019-05-21T20:32:05.711Z,90.30
2019-05-21T20:34:40.892Z,90.50
2019-05-21T20:37:17.251Z,90.80
2019-05-21T20:39:52.608Z,90.80
2019-05-21T20:42:29.157Z,90.80
2019-05-21T20:45:08.355Z,90.90
2019-05-21T20:47:44.621Z,90.80
2019-05-21T20:50:19.840Z,90.90
2019-05-21T20:52:54.713Z,90.80
2019-05-21T20:55:31.306Z,90.80
2019-05-21T21:01:00.858Z,91.10
2019-05-21T21:03:35.589Z,91.00
2019-05-21T21:06:10.913Z,90.80
2019-05-21T21:08:45.962Z,90.90
2019-05-21T21:11:20.903Z,90.90
2019-05-21T21:13:55.726Z,90.80
2019-05-21T21:16:31.238Z,90.80
2019-05-21T21:19:06.139Z,90.50
2019-05-21T21:21:41.198Z,90.50
2019-05-21T21:24:15.996Z,90.10
2019-05-21T21:26:51.250Z,90.20
2019-05-21T21:29:26.125Z,90.30
2019-05-21T21:32:01.165Z,90.10
2019-05-21T21:34:35.980Z,90.00
2019-05-21T21:37:10.737Z,90.30
2019-05-21T21:39:45.519Z,90.10
2019-05-21T21:42:20.558Z,90.20
2019-05-21T21:44:55.314Z,90.10
2019-05-21T21:47:30.070Z,90.00
2019-05-21T21:50:06.674Z,89.70
2019-05-21T21:52:42.003Z,89.60
2019-05-21T21:55:17.085Z,89.40
2019-05-21T21:57:52.090Z,88.50
2019-05-21T22:00:55.298Z,88.60
2019-05-21T22:03:32.590Z,88.50
2019-05-21T22:06:09.922Z,89.00
2019-05-21T22:08:45.241Z,89.40
2019-05-21T22:11:20.097Z,89.30
2019-05-21T22:13:56.265Z,89.40
2019-05-21T22:16:31.109Z,90.00
2019-05-21T22:19:06.730Z,90.00
2019-05-21T22:21:41.374Z,90.30
2019-05-21T22:24:15.945Z,90.50
2019-05-21T22:26:50.718Z,90.40
2019-05-21T22:29:25.505Z,90.60
2019-05-21T22:32:00.308Z,90.50
2019-05-21T22:34:35.055Z,91.10
2019-05-21T22:37:11.717Z,90.60
2019-05-21T22:39:48.098Z,90.80
2019-05-21T22:42:23.519Z,90.70
2019-05-21T22:45:08.114Z,90.50
2019-05-21T22:47:36.161Z,90.60
2019-05-21T22:50:11.409Z,90.60
2019-05-21T22:52:46.017Z,90.60
2019-05-21T22:55:20.662Z,90.50
2019-05-21T22:57:55.444Z,90.90
2019-05-21T23:00:31.839Z,91.50
2019-05-21T23:03:06.802Z,91.90
2019-05-21T23:05:41.550Z,92.20
2019-05-21T23:08:17.548Z,92.50
2019-05-21T23:10:52.302Z,92.50
2019-05-21T23:13:27.093Z,92.70
2019-05-21T23:16:01.911Z,93.00
2019-05-21T23:18:39.170Z,92.80
2019-05-21T23:21:17.470Z,92.80
2019-05-21T23:23:53.772Z,92.80
2019-05-21T23:26:28.799Z,92.60
2019-05-21T23:29:04.062Z,92.40
2019-05-21T23:31:39.391Z,92.10
2019-05-21T23:34:15.151Z,91.90
2019-05-21T23:36:51.576Z,91.60
2019-05-21T23:39:28.232Z,91.40
2019-05-21T23:42:04.947Z,91.20
2019-05-21T23:44:39.741Z,91.00
2019-05-21T23:47:16.116Z,91.20
2019-05-21T23:49:51.195Z,90.40
2019-05-21T23:52:26.232Z,90.20
2019-05-21T23:55:01.529Z,89.80
2019-05-21T23:57:36.952Z,89.20
